Аэропорт: Ужгород. Ужгород

ICAO: UKLU

METAR:
2020-06-04 04:00:00
UKLU 040400Z 10002MPS 060V160 9999 OVC027 12/09 Q1004 NOSIG
METAR:
2020-06-04 04:07:00
TAF UKLU 040407Z 0404/0412 12003MPS 9999 BKN040 TEMPO 0409/0412 VRB06G11MPS -TSRA SCT040CB